Time,TemperatureF,DewpointF,PressureIn,WindDirection,WindDirectionDegrees,WindSpeedMPH,WindSpeedGustMPH,Humidity,HourlyPrecipIn,Conditions,Clouds,dailyrainin,SoftwareType,DateUTC
2013-04-17 00:00:00,27.5,5.2,30.08,NE,39,0.0,0.0,38,0.00,,CLR,0.00,VWS V14.01,2013-04-17 07:00:00,
2013-04-17 00:05:00,27.3,5.6,30.08,NE,39,0.0,0.0,39,0.00,,CLR,0.00,VWS V14.01,2013-04-17 07:05:00,
2013-04-17 00:10:00,27.5,6.9,30.08,NE,39,0.0,0.0,41,0.00,,CLR,0.00,VWS V14.01,2013-04-17 07:10:00,
2013-04-17 00:15:00,27.5,6.9,30.08,NE,39,0.0,0.0,41,0.00,,CLR,0.00,VWS V14.01,2013-04-17 07:15:00,
2013-04-17 00:20:00,27.7,7.1,30.08,NE,39,0.0,0.0,41,0.00,,CLR,0.00,VWS V14.01,2013-04-17 07:20:00,
2013-04-17 00:25:00,27.3,6.7,30.08,NE,39,0.0,0.0,41,0.00,,CLR,0.00,VWS V14.01,2013-04-17 07:25:00,
2013-04-17 00:30:00,26.8,6.2,30.08,NE,39,0.0,0.0,41,0.00,,CLR,0.00,VWS V14.01,2013-04-17 07:30:00,
2013-04-17 00:35:00,26.4,6.4,30.08,NE,39,0.0,0.0,42,0.00,,CLR,0.00,VWS V14.01,2013-04-17 07:35:00,
2013-04-17 00:40:00,26.4,6.4,30.08,NE,39,0.0,0.0,42,0.00,,CLR,0.00,VWS V14.01,2013-04-17 07:40:00,
2013-04-17 00:45:00,26.4,7.0,30.08,NE,39,0.0,0.0,43,0.00,,CLR,0.00,VWS V14.01,2013-04-17 07:45:00,
2013-04-17 00:50:00,26.1,6.6,30.08,NE,39,0.0,0.0,43,0.00,,CLR,0.00,VWS V14.01,2013-04-17 07:50:00,
2013-04-17 00:55:00,25.7,6.3,30.08,NE,39,0.0,0.0,43,0.00,,CLR,0.00,VWS V14.01,2013-04-17 07:55:00,
2013-04-17 01:00:00,25.3,6.0,30.08,NE,39,0.0,0.0,43,0.00,,CLR,0.00,VWS V14.01,2013-04-17 08:00:00,
2013-04-17 01:05:00,25.3,6.0,30.08,NE,39,0.0,0.0,43,0.00,,CLR,0.00,VWS V14.01,2013-04-17 08:05:00,
2013-04-17 01:10:00,25.5,6.7,30.08,NE,39,0.0,0.0,44,0.00,,CLR,0.00,VWS V14.01,2013-04-17 08:10:00,
2013-04-17 01:15:00,25.7,6.8,30.08,NE,39,0.0,0.0,44,0.00,,CLR,0.00,VWS V14.01,2013-04-17 08:15:00,
2013-04-17 01:20:00,25.9,7.0,30.08,NE,39,0.0,0.0,44,0.00,,CLR,0.00,VWS V14.01,2013-04-17 08:20:00,
2013-04-17 01:25:00,25.9,7.0,30.08,NE,39,0.0,0.0,44,0.00,,CLR,0.00,VWS V14.01,2013-04-17 08:25:00,
2013-04-17 01:30:00,25.7,6.8,30.08,NE,39,0.0,0.0,44,0.00,,CLR,0.00,VWS V14.01,2013-04-17 08:30:00,
2013-04-17 01:35:00,25.3,6.5,30.08,NE,39,0.0,0.0,44,0.00,,CLR,0.00,VWS V14.01,2013-04-17 08:35:00,
2013-04-17 01:40:00,25.0,6.2,30.08,NE,39,0.0,0.0,44,0.00,,CLR,0.00,VWS V14.01,2013-04-17 08:40:00,
2013-04-17 01:45:00,24.4,5.7,30.08,NE,39,0.0,0.0,44,0.00,,CLR,0.00,VWS V14.01,2013-04-17 08:45:00,
2013-04-17 01:50:00,24.4,6.2,30.08,NE,39,0.0,0.0,45,0.00,,CLR,0.00,VWS V14.01,2013-04-17 08:50:00,
2013-04-17 01:55:00,24.4,6.6,30.08,NE,39,0.0,0.0,46,0.00,,CLR,0.00,VWS V14.01,2013-04-17 08:55:00,
2013-04-17 02:00:00,24.3,6.0,30.08,NE,39,0.0,0.0,45,0.00,,CLR,0.00,VWS V14.01,2013-04-17 09:00:00,
2013-04-17 02:05:00,23.9,5.7,30.08,NE,39,0.0,0.0,45,0.00,,CLR,0.00,VWS V14.01,2013-04-17 09:05:00,
2013-04-17 02:10:00,23.7,6.0,30.08,NE,39,0.0,0.0,46,0.00,,CLR,0.00,VWS V14.01,2013-04-17 09:10:00,
2013-04-17 02:15:00,23.4,5.2,30.08,NE,39,0.0,0.0,45,0.00,,CLR,0.00,VWS V14.01,2013-04-17 09:15:00,
2013-04-17 02:20:00,22.8,4.7,30.08,NE,39,0.0,0.0,45,0.00,,CLR,0.00,VWS V14.01,2013-04-17 09:20:00,
2013-04-17 02:25:00,22.8,5.2,30.08,NE,39,0.0,0.0,46,0.00,,CLR,0.00,VWS V14.01,2013-04-17 09:25:00,
2013-04-17 02:30:00,23.2,5.9,30.08,NE,39,0.0,0.0,47,0.00,,CLR,0.00,VWS V14.01,2013-04-17 09:30:00,
2013-04-17 02:35:00,23.4,6.1,30.08,NE,39,0.0,0.0,47,0.00,,CLR,0.00,VWS V14.01,2013-04-17 09:35:00,
2013-04-17 02:40:00,23.5,6.3,30.08,NE,39,0.0,0.0,47,0.00,,CLR,0.00,VWS V14.01,2013-04-17 09:40:00,
2013-04-17 02:45:00,24.1,9.0,30.08,NE,39,0.0,0.0,52,0.00,,CLR,0.00,VWS V14.01,2013-04-17 09:45:00,
2013-04-17 02:50:00,24.8,9.7,30.08,NE,39,0.0,0.0,52,0.00,,CLR,0.00,VWS V14.01,2013-04-17 09:50:00,
2013-04-17 02:55:00,24.4,8.0,30.08,NE,39,0.0,0.0,49,0.00,,CLR,0.00,VWS V14.01,2013-04-17 09:55:00,
2013-04-17 03:00:00,23.9,7.1,30.08,NE,39,0.0,0.0,48,0.00,,CLR,0.00,VWS V14.01,2013-04-17 10:00:00,
2013-04-17 03:05:00,23.7,6.9,30.08,NE,39,0.0,0.0,48,0.00,,CLR,0.00,VWS V14.01,2013-04-17 10:05:00,
2013-04-17 03:10:00,23.7,6.9,30.08,NE,39,0.0,0.0,48,0.00,,CLR,0.00,VWS V14.01,2013-04-17 10:10:00,
2013-04-17 03:15:00,23.9,7.1,30.08,NE,39,0.0,0.0,48,0.00,,CLR,0.00,VWS V14.01,2013-04-17 10:15:00,
2013-04-17 03:20:00,23.5,6.8,30.08,NE,39,0.0,0.0,48,0.00,,CLR,0.00,VWS V14.01,2013-04-17 10:20:00,
2013-04-17 03:25:00,23.0,6.2,30.08,NE,39,0.0,0.0,48,0.00,,CLR,0.00,VWS V14.01,2013-04-17 10:25:00,
2013-04-17 03:30:00,22.8,6.1,30.08,NE,39,0.0,0.0,48,0.00,,CLR,0.00,VWS V14.01,2013-04-17 10:30:00,
2013-04-17 03:35:00,22.8,6.5,30.08,NE,39,2.7,3.6,49,0.00,,CLR,0.00,VWS V14.01,2013-04-17 10:35:00,
2013-04-17 03:40:00,23.0,7.1,30.08,NE,39,0.0,0.0,50,0.00,,CLR,0.00,VWS V14.01,2013-04-17 10:40:00,
2013-04-17 03:45:00,22.8,6.5,30.08,NE,39,0.0,0.0,49,0.00,,CLR,0.00,VWS V14.01,2013-04-17 10:45:00,
2013-04-17 03:50:00,22.6,6.4,30.08,NE,39,0.0,0.0,49,0.00,,CLR,0.00,VWS V14.01,2013-04-17 10:50:00,
2013-04-17 03:55:00,23.0,7.1,30.08,NE,39,0.0,0.0,50,0.00,,CLR,0.00,VWS V14.01,2013-04-17 10:55:00,
2013-04-17 04:00:00,22.8,6.5,30.08,NE,39,0.0,0.0,49,0.00,,CLR,0.00,VWS V14.01,2013-04-17 11:00:00,
2013-04-17 04:05:00,22.8,7.0,30.08,NE,39,0.0,0.0,50,0.00,,CLR,0.00,VWS V14.01,2013-04-17 11:05:00,
2013-04-17 04:10:00,22.5,6.2,30.08,NE,39,0.0,0.0,49,0.00,,CLR,0.00,VWS V14.01,2013-04-17 11:10:00,
2013-04-17 04:15:00,22.1,5.9,30.08,NE,39,0.0,0.0,49,0.00,,CLR,0.00,VWS V14.01,2013-04-17 11:15:00,
2013-04-17 04:20:00,21.9,5.7,30.08,NE,39,0.0,0.0,49,0.00,,CLR,0.00,VWS V14.01,2013-04-17 11:20:00,
2013-04-17 04:25:00,21.9,6.6,30.08,NE,39,0.0,0.0,51,0.00,,CLR,0.00,VWS V14.01,2013-04-17 11:25:00,
2013-04-17 04:30:00,22.1,7.2,30.08,NE,39,0.0,0.0,52,0.00,,CLR,0.00,VWS V14.01,2013-04-17 11:30:00,
2013-04-17 04:35:00,22.1,7.2,30.08,NE,39,0.0,0.0,52,0.00,,CLR,0.00,VWS V14.01,2013-04-17 11:35:00,
2013-04-17 04:40:00,22.3,7.3,30.08,NE,39,0.0,0.0,52,0.00,,CLR,0.00,VWS V14.01,2013-04-17 11:40:00,
2013-04-17 04:45:00,22.5,7.5,30.08,NE,39,0.0,0.0,52,0.00,,CLR,0.00,VWS V14.01,2013-04-17 11:45:00,
2013-04-17 04:50:00,22.5,7.1,30.08,NE,39,0.0,0.0,51,0.00,,CLR,0.00,VWS V14.01,2013-04-17 11:50:00,
2013-04-17 04:54:00,22.6,6.8,30.08,NE,39,0.0,0.0,50,0.00,,CLR,0.00,VWS V14.01,2013-04-17 11:54:00,
2013-04-17 04:59:00,22.6,6.8,30.08,NE,39,0.0,0.0,50,0.00,,CLR,0.00,VWS V14.01,2013-04-17 11:59:00,
2013-04-17 05:04:00,23.2,7.3,30.08,NE,39,0.0,2.2,50,0.00,,CLR,0.00,VWS V14.01,2013-04-17 12:04:00,
2013-04-17 05:09:00,24.1,8.1,30.08,NE,39,2.7,2.7,50,0.00,,CLR,0.00,VWS V14.01,2013-04-17 12:09:00,
2013-04-17 05:14:00,24.4,8.0,30.08,NE,39,0.0,0.0,49,0.00,,CLR,0.00,VWS V14.01,2013-04-17 12:14:00,
2013-04-17 05:19:00,24.4,7.6,30.08,NE,39,0.0,0.0,48,0.00,,CLR,0.00,VWS V14.01,2013-04-17 12:19:00,
2013-04-17 05:24:00,23.5,6.3,30.11,NE,39,0.0,0.0,47,0.00,,CLR,0.00,VWS V14.01,2013-04-17 12:24:00,
2013-04-17 05:29:00,22.8,5.2,30.11,NE,39,0.0,0.0,46,0.00,,CLR,0.00,VWS V14.01,2013-04-17 12:29:00,
2013-04-17 05:34:00,22.3,5.1,30.11,NE,39,0.0,0.0,47,0.00,,CLR,0.00,VWS V14.01,2013-04-17 12:34:00,
2013-04-17 05:39:00,21.9,4.8,30.11,NE,39,0.0,0.0,47,0.00,,CLR,0.00,VWS V14.01,2013-04-17 12:39:00,
2013-04-17 05:44:00,21.6,4.5,30.11,NE,39,0.0,0.0,47,0.00,,CLR,0.00,VWS V14.01,2013-04-17 12:44:00,
2013-04-17 05:49:00,20.8,3.8,30.11,NE,39,0.0,0.0,47,0.00,,CLR,0.00,VWS V14.01,2013-04-17 12:49:00,
2013-04-17 05:54:00,20.3,3.3,30.11,NE,39,0.0,0.0,47,0.00,,CLR,0.00,VWS V14.01,2013-04-17 12:54:00,
2013-04-17 05:59:00,20.3,3.8,30.11,NE,39,0.0,0.0,48,0.00,,FEW140,0.00,VWS V14.01,2013-04-17 12:59:00,
2013-04-17 06:04:00,20.1,3.6,30.11,NE,39,0.0,0.0,48,0.00,,FEW140,0.00,VWS V14.01,2013-04-17 13:04:00,
2013-04-17 06:09:00,20.3,4.2,30.11,NE,39,0.0,2.2,49,0.00,,FEW140,0.00,VWS V14.01,2013-04-17 13:09:00,
2013-04-17 06:14:00,20.5,4.8,30.11,NE,39,0.0,0.0,50,0.00,,FEW140,0.00,VWS V14.01,2013-04-17 13:14:00,
2013-04-17 06:19:00,21.0,6.2,30.11,NE,39,0.0,0.0,52,0.00,,FEW140,0.00,VWS V14.01,2013-04-17 13:19:00,
2013-04-17 06:24:00,21.6,7.1,30.11,NE,39,0.0,0.0,53,0.00,,FEW140,0.00,VWS V14.01,2013-04-17 13:24:00,
2013-04-17 06:29:00,21.9,7.4,30.11,NE,39,0.0,0.0,53,0.00,,FEW140,0.00,VWS V14.01,2013-04-17 13:29:00,
2013-04-17 06:34:00,21.9,7.4,30.11,NE,39,0.0,0.0,53,0.00,,FEW140,0.00,VWS V14.01,2013-04-17 13:34:00,
2013-04-17 06:39:00,21.9,7.0,30.11,NE,39,0.0,0.0,52,0.00,,FEW140,0.00,VWS V14.01,2013-04-17 13:39:00,
2013-04-17 06:44:00,22.1,7.6,30.11,NE,39,0.0,0.0,53,0.00,,FEW140,0.00,VWS V14.01,2013-04-17 13:44:00,
2013-04-17 06:49:00,22.5,7.9,30.11,NE,39,0.0,0.0,53,0.00,,FEW140,0.00,VWS V14.01,2013-04-17 13:49:00,
2013-04-17 06:54:00,22.8,8.3,30.11,NE,39,0.0,0.0,53,0.00,,FEW140,0.00,VWS V14.01,2013-04-17 13:54:00,
2013-04-17 06:59:00,23.4,8.8,30.11,NE,39,0.0,0.0,53,0.00,,FEW150,0.00,VWS V14.01,2013-04-17 13:59:00,
2013-04-17 07:04:00,24.6,10.4,30.11,NE,39,0.0,0.0,54,0.00,,FEW150,0.00,VWS V14.01,2013-04-17 14:04:00,
2013-04-17 07:09:00,25.9,11.1,30.11,NE,39,0.0,0.0,53,0.00,,FEW150,0.00,VWS V14.01,2013-04-17 14:09:00,
2013-04-17 07:14:00,27.0,11.7,30.11,NE,39,2.2,2.7,52,0.00,,FEW150,0.00,VWS V14.01,2013-04-17 14:14:00,
2013-04-17 07:19:00,28.0,10.9,30.11,NE,39,0.0,0.0,48,0.00,,FEW150,0.00,VWS V14.01,2013-04-17 14:19:00,
2013-04-17 07:24:00,28.6,10.4,30.11,NE,39,2.2,2.7,46,0.00,,FEW150,0.00,VWS V14.01,2013-04-17 14:24:00,
2013-04-17 07:29:00,29.1,9.9,30.11,NE,39,0.0,2.2,44,0.00,,FEW150,0.00,VWS V14.01,2013-04-17 14:29:00,
2013-04-17 07:34:00,29.5,10.3,30.11,NE,39,0.0,0.0,44,0.00,,FEW150,0.00,VWS V14.01,2013-04-17 14:34:00,
2013-04-17 07:39:00,29.7,9.9,30.11,NE,39,0.0,0.0,43,0.00,,FEW150,0.00,VWS V14.01,2013-04-17 14:39:00,
2013-04-17 07:44:00,30.0,10.2,30.11,NE,39,0.0,0.0,43,0.00,,FEW150,0.00,VWS V14.01,2013-04-17 14:44:00,
2013-04-17 07:49:00,30.4,10.1,30.11,NE,39,0.0,0.0,42,0.00,,FEW150,0.00,VWS V14.01,2013-04-17 14:49:00,
2013-04-17 07:54:00,31.1,10.7,30.11,NE,39,0.0,0.0,42,0.00,,FEW150,0.00,VWS V14.01,2013-04-17 14:54:00,
2013-04-17 07:59:00,31.6,11.2,30.11,NE,39,0.0,0.0,42,0.00,,FEW150,0.00,VWS V14.01,2013-04-17 14:59:00,
2013-04-17 08:04:00,32.2,11.1,30.11,NE,39,0.0,0.0,41,0.00,,SCT200,0.00,VWS V14.01,2013-04-17 15:04:00,
2013-04-17 08:09:00,33.3,12.1,30.11,NE,39,0.0,2.7,41,0.00,,SCT200,0.00,VWS V14.01,2013-04-17 15:09:00,
2013-04-17 08:14:00,33.8,12.1,30.11,NE,39,2.2,2.2,40,0.00,,SCT200,0.00,VWS V14.01,2013-04-17 15:14:00,
2013-04-17 08:19:00,34.5,12.7,30.11,NE,39,0.0,0.0,40,0.00,,SCT200,0.00,VWS V14.01,2013-04-17 15:19:00,
2013-04-17 08:24:00,35.8,13.8,30.11,NE,39,0.0,0.0,40,0.00,,SCT200,0.00,VWS V14.01,2013-04-17 15:24:00,
2013-04-17 08:29:00,37.0,14.4,30.11,NE,39,2.7,3.1,39,0.00,,SCT200,0.00,VWS V14.01,2013-04-17 15:29:00,
2013-04-17 08:35:00,38.1,12.9,30.11,NE,39,0.0,0.0,35,0.00,,SCT200,0.00,VWS V14.01,2013-04-17 15:35:00,
2013-04-17 08:40:00,38.5,12.6,30.11,SSW,192,3.6,4.0,34,0.00,,SCT200,0.00,VWS V14.01,2013-04-17 15:40:00,
2013-04-17 08:45:00,39.6,12.9,30.11,ESE,114,0.0,0.0,33,0.00,,SCT200,0.00,VWS V14.01,2013-04-17 15:45:00,
2013-04-17 08:50:00,40.3,13.5,30.11,SSE,160,2.7,4.0,33,0.00,,SCT200,0.00,VWS V14.01,2013-04-17 15:50:00,
2013-04-17 08:55:00,41.0,12.7,30.11,South,169,3.1,4.0,31,0.00,,SCT200,0.00,VWS V14.01,2013-04-17 15:55:00,
2013-04-17 09:00:00,41.7,13.3,30.11,SW,221,3.1,3.6,31,0.00,,SCT200,0.00,VWS V14.01,2013-04-17 16:00:00,
2013-04-17 09:05:00,42.1,12.9,30.11,ESE,112,2.2,2.7,30,0.00,,FEW200,0.00,VWS V14.01,2013-04-17 16:05:00,
2013-04-17 09:10:00,42.4,13.2,30.11,SSE,165,0.0,0.0,30,0.00,,FEW200,0.00,VWS V14.01,2013-04-17 16:10:00,
2013-04-17 09:15:00,42.1,12.9,30.11,ENE,59,0.0,0.0,30,0.00,,FEW200,0.00,VWS V14.01,2013-04-17 16:15:00,
2013-04-17 09:20:00,41.9,12.0,30.11,North,357,2.2,2.7,29,0.00,,FEW200,0.00,VWS V14.01,2013-04-17 16:20:00,
2013-04-17 09:25:00,41.4,11.5,30.11,NNE,17,3.6,3.6,29,0.00,,FEW200,0.00,VWS V14.01,2013-04-17 16:25:00,
2013-04-17 09:30:00,41.7,11.8,30.11,SE,135,3.1,3.1,29,0.00,,FEW200,0.00,VWS V14.01,2013-04-17 16:30:00,
2013-04-17 09:35:00,42.4,12.4,30.11,East,88,2.2,2.2,29,0.00,,FEW200,0.00,VWS V14.01,2013-04-17 16:35:00,
2013-04-17 09:40:00,43.3,13.2,30.11,East,95,2.7,2.7,29,0.00,,FEW200,0.00,VWS V14.01,2013-04-17 16:40:00,
2013-04-17 09:45:00,43.7,12.8,30.11,NE,39,2.2,2.2,28,0.00,,FEW200,0.00,VWS V14.01,2013-04-17 16:45:00,
2013-04-17 09:50:00,42.6,12.6,30.11,NW,324,3.1,3.6,29,0.00,,FEW200,0.00,VWS V14.01,2013-04-17 16:50:00,
2013-04-17 09:55:00,43.3,13.2,30.11,East,101,2.7,2.7,29,0.00,,FEW200,0.00,VWS V14.01,2013-04-17 16:55:00,
2013-04-17 10:00:00,44.1,13.1,30.11,NNW,339,3.1,3.6,28,0.00,,FEW200,0.00,VWS V14.01,2013-04-17 17:00:00,
2013-04-17 10:05:00,44.6,13.5,30.11,ENE,73,2.7,3.1,28,0.00,,FEW200,0.00,VWS V14.01,2013-04-17 17:05:00,
2013-04-17 10:10:00,45.1,14.0,30.11,ENE,71,4.0,4.0,28,0.00,,FEW200,0.00,VWS V14.01,2013-04-17 17:10:00,
2013-04-17 10:15:00,45.1,13.2,30.11,NNE,18,2.7,2.7,27,0.00,,FEW200,0.00,VWS V14.01,2013-04-17 17:15:00,
2013-04-17 10:20:00,44.6,11.0,30.11,NW,320,3.1,3.6,25,0.00,,FEW200,0.00,VWS V14.01,2013-04-17 17:20:00,
2013-04-17 10:24:00,44.4,8.9,30.11,NNW,334,0.0,0.0,23,0.00,,FEW200,0.00,VWS V14.01,2013-04-17 17:24:00,
2013-04-17 10:29:00,45.3,13.3,30.11,WSW,258,5.8,5.8,27,0.00,,FEW200,0.00,VWS V14.01,2013-04-17 17:29:00,
2013-04-17 10:34:00,46.8,11.9,30.11,West,264,4.5,4.5,24,0.00,,FEW200,0.00,VWS V14.01,2013-04-17 17:34:00,
2013-04-17 10:39:00,47.1,12.2,30.11,NNE,20,2.7,5.8,24,0.00,,FEW200,0.00,VWS V14.01,2013-04-17 17:39:00,
2013-04-17 10:44:00,46.6,9.8,30.11,NNW,340,0.0,2.7,22,0.00,,FEW200,0.00,VWS V14.01,2013-04-17 17:44:00,
2013-04-17 10:49:00,46.2,12.4,30.11,West,260,4.5,4.5,25,0.00,,FEW200,0.00,VWS V14.01,2013-04-17 17:49:00,
2013-04-17 10:54:00,46.8,9.9,30.11,West,264,2.7,2.7,22,0.00,,FEW200,0.00,VWS V14.01,2013-04-17 17:54:00,
2013-04-17 10:59:00,46.9,10.1,30.11,North,353,4.9,4.9,22,0.00,,SCT200,0.00,VWS V14.01,2013-04-17 17:59:00,
2013-04-17 11:04:00,46.9,10.1,30.11,WNW,298,2.7,3.1,22,0.00,,SCT200,0.00,VWS V14.01,2013-04-17 18:04:00,
2013-04-17 11:09:00,48.0,13.0,30.11,SW,218,4.0,4.0,24,0.00,,SCT200,0.00,VWS V14.01,2013-04-17 18:09:00,
2013-04-17 11:14:00,48.9,10.7,30.11,WNW,283,3.1,3.1,21,0.00,,SCT200,0.00,VWS V14.01,2013-04-17 18:14:00,
2013-04-17 11:19:00,47.8,10.9,30.11,NNW,346,3.1,3.6,22,0.00,,SCT200,0.00,VWS V14.01,2013-04-17 18:19:00,
2013-04-17 11:24:00,47.5,10.6,30.11,NW,322,3.1,3.1,22,0.00,,SCT200,0.00,VWS V14.01,2013-04-17 18:24:00,
2013-04-17 11:29:00,47.1,12.2,30.11,NW,321,2.7,2.7,24,0.00,,SCT200,0.00,VWS V14.01,2013-04-17 18:29:00,
2013-04-17 11:34:00,48.6,13.4,30.11,SW,219,2.7,3.6,24,0.00,,SCT200,0.00,VWS V14.01,2013-04-17 18:34:00,
2013-04-17 11:39:00,49.5,11.2,30.11,North,0,2.7,2.7,21,0.00,,SCT200,0.00,VWS V14.01,2013-04-17 18:39:00,
2013-04-17 11:44:00,48.4,10.3,30.11,NNW,327,3.6,3.6,21,0.00,,SCT200,0.00,VWS V14.01,2013-04-17 18:44:00,
2013-04-17 11:49:00,47.8,10.9,30.11,NW,318,2.2,2.2,22,0.00,,SCT200,0.00,VWS V14.01,2013-04-17 18:49:00,
2013-04-17 11:54:00,48.0,11.0,30.08,NNW,335,0.0,0.0,22,0.00,,SCT200,0.00,VWS V14.01,2013-04-17 18:54:00,
2013-04-17 11:59:00,48.0,11.0,30.08,NNW,332,2.7,3.6,22,0.00,,SCT200,0.00,VWS V14.01,2013-04-17 18:59:00,
2013-04-17 12:04:00,48.4,10.3,30.08,WSW,256,5.8,5.8,21,0.00,,SCT200,0.00,VWS V14.01,2013-04-17 19:04:00,
2013-04-17 12:09:00,48.7,10.6,30.08,West,276,3.1,5.4,21,0.00,,SCT200,0.00,VWS V14.01,2013-04-17 19:09:00,
2013-04-17 12:14:00,48.4,10.3,30.08,NW,326,2.7,2.7,21,0.00,,SCT200,0.00,VWS V14.01,2013-04-17 19:14:00,
2013-04-17 12:19:00,48.6,10.4,30.08,WSW,257,3.1,3.1,21,0.00,,SCT200,0.00,VWS V14.01,2013-04-17 19:19:00,
2013-04-17 12:24:00,48.9,10.7,30.08,NNW,348,3.1,3.1,21,0.00,,SCT200,0.00,VWS V14.01,2013-04-17 19:24:00,
2013-04-17 12:29:00,48.9,13.7,30.08,NNE,24,0.0,4.9,24,0.00,,SCT200,0.00,VWS V14.01,2013-04-17 19:29:00,
2013-04-17 12:34:00,48.9,10.7,30.08,NW,326,4.0,4.0,21,0.00,,SCT200,0.00,VWS V14.01,2013-04-17 19:34:00,
2013-04-17 12:39:00,48.7,10.6,30.08,SW,225,2.7,2.7,21,0.00,,SCT200,0.00,VWS V14.01,2013-04-17 19:39:00,
2013-04-17 12:44:00,49.1,8.6,30.08,NNW,333,3.6,4.0,19,0.00,,SCT200,0.00,VWS V14.01,2013-04-17 19:44:00,
2013-04-17 12:49:00,49.1,8.6,30.08,NW,325,3.6,8.1,19,0.00,,SCT200,0.00,VWS V14.01,2013-04-17 19:49:00,
2013-04-17 12:54:00,49.1,8.6,30.08,NNE,24,5.8,5.8,19,0.00,,SCT200,0.00,VWS V14.01,2013-04-17 19:54:00,
2013-04-17 12:59:00,49.6,11.3,30.08,ENE,63,3.6,5.8,21,0.00,,FEW065,0.00,VWS V14.01,2013-04-17 19:59:00,
2013-04-17 13:04:00,50.0,11.6,30.08,NNW,339,2.7,3.1,21,0.00,,FEW065,0.00,VWS V14.01,2013-04-17 20:04:00,
2013-04-17 13:09:00,50.2,9.5,30.08,NNW,328,5.4,5.8,19,0.00,,FEW065,0.00,VWS V14.01,2013-04-17 20:09:00,
2013-04-17 13:14:00,50.0,11.6,30.08,North,0,3.1,4.9,21,0.00,,FEW065,0.00,VWS V14.01,2013-04-17 20:14:00,
2013-04-17 13:19:00,49.8,9.2,30.08,NNW,338,3.6,6.3,19,0.00,,FEW065,0.00,VWS V14.01,2013-04-17 20:19:00,
2013-04-17 13:24:00,50.4,9.7,30.08,NE,43,3.1,4.0,19,0.00,,FEW065,0.00,VWS V14.01,2013-04-17 20:24:00,
2013-04-17 13:29:00,50.5,12.1,30.08,North,9,3.1,3.1,21,0.00,,FEW065,0.00,VWS V14.01,2013-04-17 20:29:00,
2013-04-17 13:34:00,50.9,10.1,30.08,NW,306,3.1,4.9,19,0.00,,FEW065,0.00,VWS V14.01,2013-04-17 20:34:00,
2013-04-17 13:39:00,50.9,10.1,30.05,West,268,4.9,4.9,19,0.00,,FEW065,0.00,VWS V14.01,2013-04-17 20:39:00,
2013-04-17 13:44:00,50.7,12.2,30.05,NW,311,6.3,6.3,21,0.00,,FEW065,0.00,VWS V14.01,2013-04-17 20:44:00,
2013-04-17 13:49:00,50.9,12.4,30.05,West,262,8.3,8.7,21,0.00,,FEW065,0.00,VWS V14.01,2013-04-17 20:49:00,
2013-04-17 13:54:00,51.1,12.5,30.05,West,266,5.8,5.8,21,0.00,,FEW065,0.00,VWS V14.01,2013-04-17 20:54:00,
2013-04-17 13:59:00,50.9,12.4,30.05,WSW,245,6.7,8.1,21,0.00,,FEW065,0.00,VWS V14.01,2013-04-17 20:59:00,
2013-04-17 14:04:00,50.5,9.8,30.05,NW,321,0.0,0.0,19,0.00,,FEW065,0.00,VWS V14.01,2013-04-17 21:04:00,
2013-04-17 14:09:00,50.0,11.6,30.05,West,268,8.7,8.7,21,0.00,,FEW065,0.00,VWS V14.01,2013-04-17 21:09:00,
2013-04-17 14:14:00,50.2,9.5,30.05,NW,312,3.6,4.0,19,0.00,,FEW065,0.00,VWS V14.01,2013-04-17 21:14:00,
2013-04-17 14:19:00,50.4,11.9,30.05,NNW,327,8.7,8.7,21,0.00,,FEW065,0.00,VWS V14.01,2013-04-17 21:19:00,
2013-04-17 14:24:00,50.5,9.8,30.05,WSW,247,3.6,3.6,19,0.00,,FEW065,0.00,VWS V14.01,2013-04-17 21:24:00,
2013-04-17 14:29:00,50.2,9.5,30.05,NW,323,4.5,7.2,19,0.00,,FEW065,0.00,VWS V14.01,2013-04-17 21:29:00,
2013-04-17 14:34:00,50.4,9.7,30.05,WNW,283,4.0,7.6,19,0.00,,FEW065,0.00,VWS V14.01,2013-04-17 21:34:00,
2013-04-17 14:39:00,50.4,9.7,30.05,NW,324,2.2,4.0,19,0.00,,FEW065,0.00,VWS V14.01,2013-04-17 21:39:00,
2013-04-17 14:44:00,50.4,9.7,30.05,NW,306,8.3,12.3,19,0.00,,FEW065,0.00,VWS V14.01,2013-04-17 21:44:00,
2013-04-17 14:49:00,50.4,9.7,30.05,NNE,18,3.1,3.6,19,0.00,,FEW065,0.00,VWS V14.01,2013-04-17 21:49:00,
2013-04-17 14:54:00,50.5,9.8,30.05,North,6,5.4,5.8,19,0.00,,FEW065,0.00,VWS V14.01,2013-04-17 21:54:00,
2013-04-17 14:59:00,50.5,9.8,30.05,WNW,294,4.0,8.7,19,0.00,,SCT200,0.00,VWS V14.01,2013-04-17 21:59:00,
2013-04-17 15:04:00,50.9,10.1,30.05,WNW,282,2.2,4.0,19,0.00,,SCT200,0.00,VWS V14.01,2013-04-17 22:04:00,
2013-04-17 15:09:00,50.7,10.0,30.05,West,265,3.1,6.3,19,0.00,,SCT200,0.00,VWS V14.01,2013-04-17 22:09:00,
2013-04-17 15:14:00,50.5,9.8,30.05,West,273,3.1,6.3,19,0.00,,SCT200,0.00,VWS V14.01,2013-04-17 22:14:00,
2013-04-17 15:19:00,50.5,9.8,30.05,North,353,5.4,5.4,19,0.00,,SCT200,0.00,VWS V14.01,2013-04-17 22:19:00,
2013-04-17 15:24:00,50.9,10.1,30.02,NW,321,4.9,5.4,19,0.00,,SCT200,0.00,VWS V14.01,2013-04-17 22:24:00,
2013-04-17 15:29:00,51.1,10.3,30.02,NW,325,2.7,4.9,19,0.00,,SCT200,0.00,VWS V14.01,2013-04-17 22:29:00,
2013-04-17 15:34:00,51.1,10.3,30.02,West,267,6.7,6.7,19,0.00,,SCT200,0.00,VWS V14.01,2013-04-17 22:34:00,
2013-04-17 15:39:00,51.3,10.4,30.02,WSW,239,5.8,8.1,19,0.00,,SCT200,0.00,VWS V14.01,2013-04-17 22:39:00,
2013-04-17 15:44:00,51.4,10.6,30.02,West,280,4.0,6.3,19,0.00,,SCT200,0.00,VWS V14.01,2013-04-17 22:44:00,
2013-04-17 15:49:00,51.4,10.6,30.02,NW,307,8.3,8.7,19,0.00,,SCT200,0.00,VWS V14.01,2013-04-17 22:49:00,
2013-04-17 15:54:00,51.6,10.7,30.02,WSW,251,10.1,10.1,19,0.00,,SCT200,0.00,VWS V14.01,2013-04-17 22:54:00,
2013-04-17 15:59:00,51.8,9.7,30.02,West,281,4.9,4.9,18,0.00,,SCT200,0.00,VWS V14.01,2013-04-17 22:59:00,
2013-04-17 16:04:00,52.0,9.8,30.02,NW,323,5.8,5.8,18,0.00,,SCT200,0.00,VWS V14.01,2013-04-17 23:04:00,
2013-04-17 16:09:00,52.2,10.0,30.02,WNW,286,8.7,10.5,18,0.00,,SCT200,0.00,VWS V14.01,2013-04-17 23:09:00,
2013-04-17 16:14:00,52.0,9.8,30.02,WSW,256,4.0,4.0,18,0.00,,SCT200,0.00,VWS V14.01,2013-04-17 23:14:00,
2013-04-17 16:19:00,52.0,9.8,30.02,NW,320,5.4,8.1,18,0.00,,SCT200,0.00,VWS V14.01,2013-04-17 23:19:00,
2013-04-17 16:24:00,52.3,10.1,30.02,NW,309,3.6,4.0,18,0.00,,SCT200,0.00,VWS V14.01,2013-04-17 23:24:00,
2013-04-17 16:29:00,52.3,10.1,30.02,NNW,329,3.1,4.9,18,0.00,,SCT200,0.00,VWS V14.01,2013-04-17 23:29:00,
2013-04-17 16:34:00,52.5,10.2,30.02,West,265,6.3,8.1,18,0.00,,SCT200,0.00,VWS V14.01,2013-04-17 23:34:00,
2013-04-17 16:39:00,52.7,10.4,30.02,WNW,301,5.8,5.8,18,0.00,,SCT200,0.00,VWS V14.01,2013-04-17 23:39:00,
2013-04-17 16:44:00,52.9,10.6,30.02,NW,308,3.6,5.8,18,0.00,,SCT200,0.00,VWS V14.01,2013-04-17 23:44:00,
2013-04-17 16:49:00,53.1,10.7,30.02,WSW,247,8.1,8.1,18,0.00,,SCT200,0.00,VWS V14.01,2013-04-17 23:49:00,
2013-04-17 16:54:00,53.1,10.7,30.02,WSW,258,3.6,3.6,18,0.00,,SCT200,0.00,VWS V14.01,2013-04-17 23:54:00,
2013-04-17 16:59:00,52.7,10.4,30.02,NW,324,5.8,5.8,18,0.00,,SCT200,0.00,VWS V14.01,2013-04-17 23:59:00,
2013-04-17 17:04:00,52.7,10.4,30.02,NNW,332,4.9,5.8,18,0.00,,SCT200,0.00,VWS V14.01,2013-04-18 00:04:00,
2013-04-17 17:09:00,53.1,10.7,30.02,WNW,298,3.1,4.9,18,0.00,,SCT200,0.00,VWS V14.01,2013-04-18 00:09:00,
2013-04-17 17:14:00,53.1,10.7,30.02,West,271,8.7,8.7,18,0.00,,SCT200,0.00,VWS V14.01,2013-04-18 00:14:00,
2013-04-17 17:19:00,52.9,10.6,30.02,NW,324,3.6,6.3,18,0.00,,SCT200,0.00,VWS V14.01,2013-04-18 00:19:00,
2013-04-17 17:24:00,52.9,10.6,30.02,NNW,339,0.0,2.7,18,0.00,,SCT200,0.00,VWS V14.01,2013-04-18 00:24:00,
2013-04-17 17:29:00,54.9,12.2,30.02,WNW,293,5.8,7.2,18,0.00,,SCT200,0.00,VWS V14.01,2013-04-18 00:29:00,
2013-04-17 17:34:00,56.8,12.5,30.02,NNW,328,5.8,5.8,17,0.00,,SCT200,0.00,VWS V14.01,2013-04-18 00:34:00,
2013-04-17 17:39:00,55.9,11.8,30.02,NNW,341,5.4,5.4,17,0.00,,SCT200,0.00,VWS V14.01,2013-04-18 00:39:00,
2013-04-17 17:44:00,56.5,12.2,30.02,NNW,328,5.4,6.3,17,0.00,,SCT200,0.00,VWS V14.01,2013-04-18 00:44:00,
2013-04-17 17:49:00,57.6,13.1,30.02,North,2,5.8,5.8,17,0.00,,SCT200,0.00,VWS V14.01,2013-04-18 00:49:00,
2013-04-17 17:54:00,58.3,13.7,30.02,NW,318,5.8,5.8,17,0.00,,SCT200,0.00,VWS V14.01,2013-04-18 00:54:00,
2013-04-17 17:59:00,59.7,14.9,30.02,WNW,301,3.6,6.3,17,0.00,,SCT200,0.00,VWS V14.01,2013-04-18 00:59:00,
2013-04-17 18:04:00,61.3,18.8,30.02,West,277,6.3,6.3,19,0.00,,SCT200,0.00,VWS V14.01,2013-04-18 01:04:00,
2013-04-17 18:09:00,61.5,14.9,30.02,West,281,4.9,4.9,16,0.00,,SCT200,0.00,VWS V14.01,2013-04-18 01:09:00,
2013-04-17 18:14:00,60.1,15.1,30.02,NW,317,2.2,3.1,17,0.00,,SCT200,0.00,VWS V14.01,2013-04-18 01:14:00,
2013-04-17 18:19:00,59.5,14.7,30.02,West,265,8.3,8.3,17,0.00,,SCT200,0.00,VWS V14.01,2013-04-18 01:19:00,
2013-04-17 18:24:00,58.5,13.8,30.02,NW,307,2.2,2.7,17,0.00,,SCT200,0.00,VWS V14.01,2013-04-18 01:24:00,
2013-04-17 18:29:00,55.6,11.5,30.02,NW,318,4.0,4.0,17,0.00,,SCT200,0.00,VWS V14.01,2013-04-18 01:29:00,
2013-04-17 18:34:00,53.8,11.3,30.02,NNW,331,3.6,7.6,18,0.00,,SCT200,0.00,VWS V14.01,2013-04-18 01:34:00,
2013-04-17 18:39:00,54.7,12.0,30.02,WNW,301,3.6,3.6,18,0.00,,SCT200,0.00,VWS V14.01,2013-04-18 01:39:00,
2013-04-17 18:44:00,55.4,11.3,30.02,WNW,301,5.4,5.4,17,0.00,,SCT200,0.00,VWS V14.01,2013-04-18 01:44:00,
2013-04-17 18:49:00,54.7,12.0,30.02,NW,308,5.8,5.8,18,0.00,,SCT200,0.00,VWS V14.01,2013-04-18 01:49:00,
2013-04-17 18:54:00,53.8,11.3,29.99,NW,313,4.0,4.0,18,0.00,,SCT200,0.00,VWS V14.01,2013-04-18 01:54:00,
2013-04-17 18:59:00,51.8,9.7,29.99,NNW,329,4.0,4.9,18,0.00,,SCT200,0.00,VWS V14.01,2013-04-18 01:59:00,
2013-04-17 19:04:00,52.0,9.8,29.99,WNW,289,3.1,3.1,18,0.00,,SCT200,0.00,VWS V14.01,2013-04-18 02:04:00,
2013-04-17 19:09:00,51.6,10.7,29.99,West,271,8.3,8.3,19,0.00,,SCT200,0.00,VWS V14.01,2013-04-18 02:09:00,
2013-04-17 19:14:00,50.5,9.8,29.99,WSW,248,3.6,3.6,19,0.00,,SCT200,0.00,VWS V14.01,2013-04-18 02:14:00,
2013-04-17 19:19:00,49.8,9.2,29.99,NW,324,2.2,3.1,19,0.00,,SCT200,0.00,VWS V14.01,2013-04-18 02:19:00,
2013-04-17 19:24:00,49.1,8.6,30.02,West,277,5.4,5.4,19,0.00,,SCT200,0.00,VWS V14.01,2013-04-18 02:24:00,
2013-04-17 19:29:00,48.4,8.0,30.02,West,259,6.3,6.3,19,0.00,,SCT200,0.00,VWS V14.01,2013-04-18 02:29:00,
2013-04-17 19:34:00,47.8,7.6,30.02,WNW,286,2.7,2.7,19,0.00,,SCT200,0.00,VWS V14.01,2013-04-18 02:34:00,
2013-04-17 19:39:00,47.3,7.1,29.99,West,275,5.4,5.4,19,0.00,,SCT200,0.00,VWS V14.01,2013-04-18 02:39:00,
2013-04-17 19:44:00,46.9,6.8,29.99,West,275,4.9,4.9,19,0.00,,SCT200,0.00,VWS V14.01,2013-04-18 02:44:00,
2013-04-17 19:49:00,46.4,6.4,29.99,West,269,3.1,4.9,19,0.00,,SCT200,0.00,VWS V14.01,2013-04-18 02:49:00,
2013-04-17 19:54:00,45.7,6.9,30.02,WSW,257,2.7,2.7,20,0.00,,SCT200,0.00,VWS V14.01,2013-04-18 02:54:00,
2013-04-17 19:59:00,45.3,6.6,30.02,WSW,253,3.6,3.6,20,0.00,,SCT200,0.00,VWS V14.01,2013-04-18 02:59:00,
2013-04-17 20:04:00,44.8,6.2,30.02,WSW,253,3.6,4.0,20,0.00,,SCT200,0.00,VWS V14.01,2013-04-18 03:04:00,
2013-04-17 20:09:00,44.2,5.7,29.99,WSW,253,3.1,3.1,20,0.00,,SCT200,0.00,VWS V14.01,2013-04-18 03:09:00,
2013-04-17 20:14:00,43.3,5.0,29.99,WSW,253,3.1,3.6,20,0.00,,SCT200,0.00,VWS V14.01,2013-04-18 03:14:00,
2013-04-17 20:19:00,42.6,5.4,29.99,WSW,252,3.1,3.1,21,0.00,,SCT200,0.00,VWS V14.01,2013-04-18 03:19:00,
2013-04-17 20:24:00,41.7,6.7,30.02,WSW,248,3.6,3.6,23,0.00,,SCT200,0.00,VWS V14.01,2013-04-18 03:24:00,
2013-04-17 20:29:00,41.2,6.2,30.02,WSW,242,2.7,3.6,23,0.00,,SCT200,0.00,VWS V14.01,2013-04-18 03:29:00,
2013-04-17 20:34:00,40.5,5.6,30.02,WSW,242,2.7,2.7,23,0.00,,SCT200,0.00,VWS V14.01,2013-04-18 03:34:00,
2013-04-17 20:39:00,39.7,5.0,30.02,WSW,242,2.7,2.7,23,0.00,,SCT200,0.00,VWS V14.01,2013-04-18 03:39:00,
2013-04-17 20:44:00,39.4,4.7,30.02,WSW,242,2.7,2.7,23,0.00,,SCT200,0.00,VWS V14.01,2013-04-18 03:44:00,
2013-04-17 20:49:00,39.0,5.3,30.02,WSW,242,2.7,3.1,24,0.00,,SCT200,0.00,VWS V14.01,2013-04-18 03:49:00,
2013-04-17 20:54:00,38.8,5.2,30.02,WSW,242,2.7,2.7,24,0.00,,SCT200,0.00,VWS V14.01,2013-04-18 03:54:00,
2013-04-17 20:59:00,38.5,4.8,30.02,WSW,242,2.7,2.7,24,0.00,,FEW140,0.00,VWS V14.01,2013-04-18 03:59:00,
2013-04-17 21:01:00,38.3,4.7,30.02,WSW,242,2.7,3.1,24,0.00,,FEW140,0.00,VWS V14.01,2013-04-18 04:01:00,
2013-04-17 21:02:00,38.3,4.7,30.02,WSW,242,3.1,4.0,24,0.00,,FEW140,0.00,VWS V14.01,2013-04-18 04:02:00,
2013-04-17 21:07:00,37.9,6.1,30.02,WSW,242,0.0,2.2,26,0.00,,FEW140,0.00,VWS V14.01,2013-04-18 04:07:00,
2013-04-17 21:11:00,37.8,6.0,30.02,WSW,242,0.0,0.0,26,0.00,,FEW140,0.00,VWS V14.01,2013-04-18 04:11:00,
2013-04-17 21:16:00,37.0,6.2,30.02,WSW,242,0.0,2.2,27,0.00,,FEW140,0.00,VWS V14.01,2013-04-18 04:16:00,
2013-04-17 21:21:00,36.9,6.0,30.02,WSW,242,2.2,2.2,27,0.00,,FEW140,0.00,VWS V14.01,2013-04-18 04:21:00,
2013-04-17 21:26:00,36.7,5.9,30.02,WSW,243,2.2,2.7,27,0.00,,FEW140,0.00,VWS V14.01,2013-04-18 04:26:00,
2013-04-17 21:31:00,36.7,5.9,30.02,WSW,243,0.0,0.0,27,0.00,,FEW140,0.00,VWS V14.01,2013-04-18 04:31:00,
2013-04-17 21:36:00,36.7,7.4,30.02,WSW,243,2.2,2.2,29,0.00,,FEW140,0.00,VWS V14.01,2013-04-18 04:36:00,
2013-04-17 21:41:00,36.7,7.4,30.02,WSW,243,0.0,0.0,29,0.00,,FEW140,0.00,VWS V14.01,2013-04-18 04:41:00,
2013-04-17 21:46:00,36.7,7.4,30.02,WSW,243,0.0,0.0,29,0.00,,FEW140,0.00,VWS V14.01,2013-04-18 04:46:00,
2013-04-17 21:51:00,36.7,7.4,30.02,WSW,243,0.0,0.0,29,0.00,,FEW140,0.00,VWS V14.01,2013-04-18 04:51:00,
2013-04-17 21:56:00,37.0,7.8,30.02,WSW,243,0.0,0.0,29,0.00,,FEW140,0.00,VWS V14.01,2013-04-18 04:56:00,
2013-04-17 22:01:00,37.0,7.8,30.02,WSW,243,0.0,0.0,29,0.00,,FEW200,0.00,VWS V14.01,2013-04-18 05:01:00,
2013-04-17 22:06:00,36.9,8.3,30.02,WSW,243,0.0,0.0,30,0.00,,FEW200,0.00,VWS V14.01,2013-04-18 05:06:00,
2013-04-17 22:11:00,36.7,8.2,30.02,WSW,243,0.0,0.0,30,0.00,,FEW200,0.00,VWS V14.01,2013-04-18 05:11:00,
2013-04-17 22:16:00,36.9,8.3,30.02,WSW,243,0.0,0.0,30,0.00,,FEW200,0.00,VWS V14.01,2013-04-18 05:16:00,
2013-04-17 22:21:00,37.2,7.9,30.02,WSW,243,0.0,0.0,29,0.00,,FEW200,0.00,VWS V14.01,2013-04-18 05:21:00,
2013-04-17 22:26:00,37.0,8.5,30.02,WSW,243,0.0,0.0,30,0.00,,FEW200,0.00,VWS V14.01,2013-04-18 05:26:00,
2013-04-17 22:31:00,36.7,8.2,30.02,WSW,243,0.0,0.0,30,0.00,,FEW200,0.00,VWS V14.01,2013-04-18 05:31:00,
2013-04-17 22:36:00,36.3,7.9,30.02,WSW,243,0.0,0.0,30,0.00,,FEW200,0.00,VWS V14.01,2013-04-18 05:36:00,
2013-04-17 22:41:00,36.0,7.6,30.02,WSW,243,0.0,0.0,30,0.00,,FEW200,0.00,VWS V14.01,2013-04-18 05:41:00,
2013-04-17 22:46:00,35.4,7.1,30.02,WSW,243,0.0,0.0,30,0.00,,FEW200,0.00,VWS V14.01,2013-04-18 05:46:00,
2013-04-17 22:51:00,34.5,6.3,30.02,WSW,248,3.1,3.1,30,0.00,,FEW200,0.00,VWS V14.01,2013-04-18 05:51:00,
2013-04-17 22:56:00,35.1,6.8,30.02,West,264,3.6,3.6,30,0.00,,FEW200,0.00,VWS V14.01,2013-04-18 05:56:00,
2013-04-17 23:01:00,35.8,7.4,30.02,WSW,249,4.0,4.0,30,0.00,,FEW200,0.00,VWS V14.01,2013-04-18 06:01:00,
2013-04-17 23:06:00,36.3,7.9,30.02,West,259,4.0,4.0,30,0.00,,FEW200,0.00,VWS V14.01,2013-04-18 06:06:00,
2013-04-17 23:11:00,36.9,8.3,30.02,West,265,3.1,4.0,30,0.00,,FEW200,0.00,VWS V14.01,2013-04-18 06:11:00,
2013-04-17 23:16:00,37.0,8.5,30.02,WSW,253,4.0,4.0,30,0.00,,FEW200,0.00,VWS V14.01,2013-04-18 06:16:00,
2013-04-17 23:21:00,36.7,8.2,30.02,WSW,254,2.7,2.7,30,0.00,,FEW200,0.00,VWS V14.01,2013-04-18 06:21:00,
2013-04-17 23:26:00,36.3,7.9,30.02,WSW,255,3.1,3.1,30,0.00,,FEW200,0.00,VWS V14.01,2013-04-18 06:26:00,
2013-04-17 23:31:00,36.1,7.7,30.02,WSW,254,0.0,0.0,30,0.00,,FEW200,0.00,VWS V14.01,2013-04-18 06:31:00,
2013-04-17 23:36:00,35.8,7.4,30.02,WSW,254,0.0,0.0,30,0.00,,FEW200,0.00,VWS V14.01,2013-04-18 06:36:00,
2013-04-17 23:41:00,35.4,7.1,30.02,WSW,254,0.0,0.0,30,0.00,,FEW200,0.00,VWS V14.01,2013-04-18 06:41:00,
2013-04-17 23:46:00,35.4,7.8,30.02,WSW,254,0.0,0.0,31,0.00,,FEW200,0.00,VWS V14.01,2013-04-18 06:46:00,
2013-04-17 23:51:00,35.2,7.7,30.02,WSW,254,0.0,0.0,31,0.00,,FEW200,0.00,VWS V14.01,2013-04-18 06:51:00,
2013-04-17 23:57:00,35.1,7.5,30.02,WSW,254,0.0,0.0,31,0.00,,FEW200,0.00,VWS V14.01,2013-04-18 06:57:00,